sensor_id;sensor_type;location;lat;lon;timestamp;P1;durP1;ratioP1;P2;durP2;ratioP2
46230;SDS011;31949;51.404;-0.038;2023-06-22T00:01:19;8.18;;;4.30;;
46230;SDS011;31949;51.404;-0.038;2023-06-22T00:03:48;5.47;;;4.13;;
46230;SDS011;31949;51.404;-0.038;2023-06-22T00:06:15;8.00;;;4.32;;
46230;SDS011;31949;51.404;-0.038;2023-06-22T00:08:42;6.28;;;4.15;;
46230;SDS011;31949;51.404;-0.038;2023-06-22T00:11:10;5.13;;;4.45;;
46230;SDS011;31949;51.404;-0.038;2023-06-22T00:13:38;5.13;;;4.38;;
46230;SDS011;31949;51.404;-0.038;2023-06-22T00:16:05;7.95;;;4.70;;
46230;SDS011;31949;51.404;-0.038;2023-06-22T00:18:32;4.93;;;4.13;;
46230;SDS011;31949;51.404;-0.038;2023-06-22T00:21:00;7.40;;;4.50;;
46230;SDS011;31949;51.404;-0.038;2023-06-22T00:23:27;8.60;;;4.30;;
46230;SDS011;31949;51.404;-0.038;2023-06-22T00:25:54;7.03;;;4.47;;
46230;SDS011;31949;51.404;-0.038;2023-06-22T00:28:21;3.88;;;3.10;;
46230;SDS011;31949;51.404;-0.038;2023-06-22T00:30:49;5.03;;;3.65;;
46230;SDS011;31949;51.404;-0.038;2023-06-22T00:33:17;8.18;;;4.57;;
46230;SDS011;31949;51.404;-0.038;2023-06-22T00:35:45;5.03;;;4.20;;
46230;SDS011;31949;51.404;-0.038;2023-06-22T00:38:12;5.53;;;4.28;;
46230;SDS011;31949;51.404;-0.038;2023-06-22T00:40:41;6.72;;;4.28;;
46230;SDS011;31949;51.404;-0.038;2023-06-22T00:43:08;5.97;;;4.20;;
46230;SDS011;31949;51.404;-0.038;2023-06-22T00:45:35;5.80;;;4.75;;
46230;SDS011;31949;51.404;-0.038;2023-06-22T00:48:03;6.88;;;3.88;;
46230;SDS011;31949;51.404;-0.038;2023-06-22T00:50:34;4.18;;;3.72;;
46230;SDS011;31949;51.404;-0.038;2023-06-22T00:53:06;4.78;;;4.28;;
46230;SDS011;31949;51.404;-0.038;2023-06-22T00:55:41;5.13;;;4.63;;
46230;SDS011;31949;51.404;-0.038;2023-06-22T00:58:10;7.75;;;4.03;;
46230;SDS011;31949;51.404;-0.038;2023-06-22T01:00:40;5.05;;;3.60;;
46230;SDS011;31949;51.404;-0.038;2023-06-22T01:03:08;6.97;;;3.78;;
46230;SDS011;31949;51.404;-0.038;2023-06-22T01:05:37;6.00;;;4.55;;
46230;SDS011;31949;51.404;-0.038;2023-06-22T01:11:18;5.15;;;4.03;;
46230;SDS011;31949;51.404;-0.038;2023-06-22T01:13:59;7.75;;;4.35;;
46230;SDS011;31949;51.404;-0.038;2023-06-22T01:16:46;4.50;;;3.90;;
46230;SDS011;31949;51.404;-0.038;2023-06-22T01:22:08;3.97;;;3.58;;
46230;SDS011;31949;51.404;-0.038;2023-06-22T01:27:43;6.68;;;4.78;;
46230;SDS011;31949;51.404;-0.038;2023-06-22T01:30:19;4.90;;;4.25;;
46230;SDS011;31949;51.404;-0.038;2023-06-22T01:32:47;4.60;;;3.55;;
46230;SDS011;31949;51.404;-0.038;2023-06-22T01:35:16;4.43;;;3.63;;
46230;SDS011;31949;51.404;-0.038;2023-06-22T01:37:44;5.50;;;4.28;;
46230;SDS011;31949;51.404;-0.038;2023-06-22T01:40:13;6.05;;;4.72;;
46230;SDS011;31949;51.404;-0.038;2023-06-22T01:42:42;6.07;;;3.90;;
46230;SDS011;31949;51.404;-0.038;2023-06-22T01:45:11;4.55;;;4.15;;
46230;SDS011;31949;51.404;-0.038;2023-06-22T01:47:39;5.88;;;4.60;;
46230;SDS011;31949;51.404;-0.038;2023-06-22T01:50:08;5.45;;;4.95;;
46230;SDS011;31949;51.404;-0.038;2023-06-22T01:52:36;5.22;;;4.30;;
46230;SDS011;31949;51.404;-0.038;2023-06-22T01:55:04;5.90;;;4.22;;
46230;SDS011;31949;51.404;-0.038;2023-06-22T01:57:32;4.22;;;3.83;;
46230;SDS011;31949;51.404;-0.038;2023-06-22T02:00:03;4.55;;;4.15;;
46230;SDS011;31949;51.404;-0.038;2023-06-22T02:02:43;6.00;;;3.85;;
46230;SDS011;31949;51.404;-0.038;2023-06-22T02:05:34;4.95;;;4.15;;
46230;SDS011;31949;51.404;-0.038;2023-06-22T02:08:09;5.82;;;4.57;;
46230;SDS011;31949;51.404;-0.038;2023-06-22T02:10:58;5.18;;;4.15;;
46230;SDS011;31949;51.404;-0.038;2023-06-22T02:13:27;6.72;;;4.57;;
46230;SDS011;31949;51.404;-0.038;2023-06-22T02:15:55;6.18;;;4.38;;
46230;SDS011;31949;51.404;-0.038;2023-06-22T02:18:23;8.00;;;4.70;;
46230;SDS011;31949;51.404;-0.038;2023-06-22T02:20:51;7.43;;;4.72;;
46230;SDS011;31949;51.404;-0.038;2023-06-22T02:23:19;5.47;;;3.78;;
46230;SDS011;31949;51.404;-0.038;2023-06-22T02:25:46;6.15;;;4.47;;
46230;SDS011;31949;51.404;-0.038;2023-06-22T02:28:13;5.07;;;3.30;;
46230;SDS011;31949;51.404;-0.038;2023-06-22T02:30:41;6.35;;;4.38;;
46230;SDS011;31949;51.404;-0.038;2023-06-22T02:33:08;5.28;;;4.15;;
46230;SDS011;31949;51.404;-0.038;2023-06-22T02:35:35;4.97;;;4.00;;
46230;SDS011;31949;51.404;-0.038;2023-06-22T02:38:03;4.55;;;3.97;;
46230;SDS011;31949;51.404;-0.038;2023-06-22T02:40:31;4.63;;;3.45;;
46230;SDS011;31949;51.404;-0.038;2023-06-22T02:42:58;4.18;;;3.65;;
46230;SDS011;31949;51.404;-0.038;2023-06-22T02:45:29;5.22;;;4.65;;
46230;SDS011;31949;51.404;-0.038;2023-06-22T02:47:57;5.47;;;3.85;;
46230;SDS011;31949;51.404;-0.038;2023-06-22T02:50:24;4.28;;;3.88;;
46230;SDS011;31949;51.404;-0.038;2023-06-22T02:52:52;5.30;;;4.57;;
46230;SDS011;31949;51.404;-0.038;2023-06-22T02:55:20;6.22;;;4.03;;
46230;SDS011;31949;51.404;-0.038;2023-06-22T02:57:53;5.65;;;3.85;;
46230;SDS011;31949;51.404;-0.038;2023-06-22T03:00:21;4.10;;;3.70;;
46230;SDS011;31949;51.404;-0.038;2023-06-22T03:02:48;4.90;;;3.88;;
46230;SDS011;31949;51.404;-0.038;2023-06-22T03:05:17;5.15;;;4.63;;
46230;SDS011;31949;51.404;-0.038;2023-06-22T03:07:46;6.47;;;4.28;;
46230;SDS011;31949;51.404;-0.038;2023-06-22T03:10:14;6.05;;;4.38;;
46230;SDS011;31949;51.404;-0.038;2023-06-22T03:12:42;6.25;;;4.28;;
46230;SDS011;31949;51.404;-0.038;2023-06-22T03:15:11;7.10;;;4.00;;
46230;SDS011;31949;51.404;-0.038;2023-06-22T03:17:39;5.10;;;4.05;;
46230;SDS011;31949;51.404;-0.038;2023-06-22T03:20:08;4.20;;;3.80;;
46230;SDS011;31949;51.404;-0.038;2023-06-22T03:22:40;5.32;;;4.20;;
46230;SDS011;31949;51.404;-0.038;2023-06-22T03:25:09;6.28;;;4.07;;
46230;SDS011;31949;51.404;-0.038;2023-06-22T03:27:39;5.70;;;4.97;;
46230;SDS011;31949;51.404;-0.038;2023-06-22T03:30:07;5.57;;;5.05;;
46230;SDS011;31949;51.404;-0.038;2023-06-22T03:32:36;8.77;;;5.55;;
46230;SDS011;31949;51.404;-0.038;2023-06-22T03:35:05;5.65;;;4.55;;
46230;SDS011;31949;51.404;-0.038;2023-06-22T03:37:35;5.28;;;4.55;;
46230;SDS011;31949;51.404;-0.038;2023-06-22T03:40:02;8.98;;;5.47;;
46230;SDS011;31949;51.404;-0.038;2023-06-22T03:42:34;4.70;;;4.30;;
46230;SDS011;31949;51.404;-0.038;2023-06-22T03:45:04;5.50;;;5.00;;
46230;SDS011;31949;51.404;-0.038;2023-06-22T03:47:32;9.90;;;5.65;;
46230;SDS011;31949;51.404;-0.038;2023-06-22T03:50:00;5.47;;;4.97;;
46230;SDS011;31949;51.404;-0.038;2023-06-22T03:52:32;5.57;;;4.68;;
46230;SDS011;31949;51.404;-0.038;2023-06-22T03:54:59;5.68;;;4.07;;
46230;SDS011;31949;51.404;-0.038;2023-06-22T03:57:27;5.38;;;4.78;;
46230;SDS011;31949;51.404;-0.038;2023-06-22T03:59:56;6.25;;;4.47;;
46230;SDS011;31949;51.404;-0.038;2023-06-22T04:02:24;7.38;;;4.47;;
46230;SDS011;31949;51.404;-0.038;2023-06-22T04:04:52;5.80;;;4.63;;
46230;SDS011;31949;51.404;-0.038;2023-06-22T04:07:20;5.72;;;4.78;;
46230;SDS011;31949;51.404;-0.038;2023-06-22T04:09:47;7.50;;;4.85;;
46230;SDS011;31949;51.404;-0.038;2023-06-22T04:12:14;6.03;;;5.13;;
46230;SDS011;31949;51.404;-0.038;2023-06-22T04:14:41;5.68;;;5.15;;
46230;SDS011;31949;51.404;-0.038;2023-06-22T04:17:08;6.25;;;4.97;;
46230;SDS011;31949;51.404;-0.038;2023-06-22T04:19:36;7.22;;;5.55;;
46230;SDS011;31949;51.404;-0.038;2023-06-22T04:22:03;7.20;;;4.53;;
46230;SDS011;31949;51.404;-0.038;2023-06-22T04:24:30;6.40;;;5.38;;
46230;SDS011;31949;51.404;-0.038;2023-06-22T04:26:57;7.30;;;5.65;;
46230;SDS011;31949;51.404;-0.038;2023-06-22T04:29:29;7.50;;;6.13;;
46230;SDS011;31949;51.404;-0.038;2023-06-22T04:31:57;5.57;;;4.82;;
46230;SDS011;31949;51.404;-0.038;2023-06-22T04:34:25;4.93;;;4.18;;
46230;SDS011;31949;51.404;-0.038;2023-06-22T04:36:55;6.72;;;4.63;;
46230;SDS011;31949;51.404;-0.038;2023-06-22T04:39:22;5.53;;;4.93;;
46230;SDS011;31949;51.404;-0.038;2023-06-22T04:41:50;5.63;;;5.03;;
46230;SDS011;31949;51.404;-0.038;2023-06-22T04:44:18;7.60;;;5.38;;
46230;SDS011;31949;51.404;-0.038;2023-06-22T04:46:52;7.43;;;5.53;;
46230;SDS011;31949;51.404;-0.038;2023-06-22T04:49:27;5.45;;;4.45;;
46230;SDS011;31949;51.404;-0.038;2023-06-22T04:52:03;4.47;;;4.03;;
46230;SDS011;31949;51.404;-0.038;2023-06-22T04:54:32;8.02;;;4.88;;
46230;SDS011;31949;51.404;-0.038;2023-06-22T04:57:00;8.00;;;5.43;;
46230;SDS011;31949;51.404;-0.038;2023-06-22T04:59:28;10.00;;;6.50;;
46230;SDS011;31949;51.404;-0.038;2023-06-22T05:01:57;7.43;;;5.70;;
46230;SDS011;31949;51.404;-0.038;2023-06-22T05:04:26;10.20;;;6.28;;
46230;SDS011;31949;51.404;-0.038;2023-06-22T05:06:54;10.07;;;6.15;;
46230;SDS011;31949;51.404;-0.038;2023-06-22T05:09:22;9.18;;;6.53;;
46230;SDS011;31949;51.404;-0.038;2023-06-22T05:11:50;7.32;;;5.60;;
46230;SDS011;31949;51.404;-0.038;2023-06-22T05:14:18;8.85;;;5.40;;
46230;SDS011;31949;51.404;-0.038;2023-06-22T05:16:45;9.00;;;5.00;;
46230;SDS011;31949;51.404;-0.038;2023-06-22T05:19:13;6.45;;;5.07;;
46230;SDS011;31949;51.404;-0.038;2023-06-22T05:21:40;6.93;;;5.18;;
46230;SDS011;31949;51.404;-0.038;2023-06-22T05:24:07;5.78;;;5.20;;
46230;SDS011;31949;51.404;-0.038;2023-06-22T05:26:34;7.05;;;5.82;;
46230;SDS011;31949;51.404;-0.038;2023-06-22T05:29:02;6.75;;;5.03;;
46230;SDS011;31949;51.404;-0.038;2023-06-22T05:31:30;8.30;;;6.82;;
46230;SDS011;31949;51.404;-0.038;2023-06-22T05:33:57;10.63;;;7.72;;
46230;SDS011;31949;51.404;-0.038;2023-06-22T05:36:26;12.18;;;7.15;;
46230;SDS011;31949;51.404;-0.038;2023-06-22T05:38:56;9.98;;;8.48;;
46230;SDS011;31949;51.404;-0.038;2023-06-22T05:41:24;9.30;;;7.25;;
46230;SDS011;31949;51.404;-0.038;2023-06-22T05:43:51;11.50;;;8.27;;
46230;SDS011;31949;51.404;-0.038;2023-06-22T05:46:18;9.02;;;7.07;;
46230;SDS011;31949;51.404;-0.038;2023-06-22T05:48:46;7.90;;;7.00;;
46230;SDS011;31949;51.404;-0.038;2023-06-22T05:51:13;8.15;;;5.90;;
46230;SDS011;31949;51.404;-0.038;2023-06-22T05:53:40;9.15;;;6.85;;
46230;SDS011;31949;51.404;-0.038;2023-06-22T05:56:08;10.02;;;8.23;;
46230;SDS011;31949;51.404;-0.038;2023-06-22T05:58:35;8.57;;;7.47;;
46230;SDS011;31949;51.404;-0.038;2023-06-22T06:01:02;11.48;;;7.88;;
46230;SDS011;31949;51.404;-0.038;2023-06-22T06:03:29;8.40;;;7.50;;
46230;SDS011;31949;51.404;-0.038;2023-06-22T06:05:57;15.35;;;8.13;;
46230;SDS011;31949;51.404;-0.038;2023-06-22T06:08:24;9.65;;;7.65;;
46230;SDS011;31949;51.404;-0.038;2023-06-22T06:10:52;10.70;;;7.72;;
46230;SDS011;31949;51.404;-0.038;2023-06-22T06:13:20;7.50;;;6.50;;
46230;SDS011;31949;51.404;-0.038;2023-06-22T06:15:47;7.85;;;5.60;;
46230;SDS011;31949;51.404;-0.038;2023-06-22T06:18:15;6.93;;;6.10;;
46230;SDS011;31949;51.404;-0.038;2023-06-22T06:20:42;7.10;;;5.65;;
46230;SDS011;31949;51.404;-0.038;2023-06-22T06:23:09;12.70;;;5.97;;
46230;SDS011;31949;51.404;-0.038;2023-06-22T06:25:37;10.80;;;6.70;;
46230;SDS011;31949;51.404;-0.038;2023-06-22T06:28:04;9.63;;;6.22;;
46230;SDS011;31949;51.404;-0.038;2023-06-22T06:30:31;7.47;;;6.05;;
46230;SDS011;31949;51.404;-0.038;2023-06-22T06:32:59;5.63;;;4.63;;
46230;SDS011;31949;51.404;-0.038;2023-06-22T06:35:26;8.60;;;4.72;;
46230;SDS011;31949;51.404;-0.038;2023-06-22T06:37:55;8.00;;;5.75;;
46230;SDS011;31949;51.404;-0.038;2023-06-22T06:40:22;7.53;;;5.22;;
46230;SDS011;31949;51.404;-0.038;2023-06-22T06:42:49;8.05;;;5.88;;
46230;SDS011;31949;51.404;-0.038;2023-06-22T06:45:17;7.72;;;5.88;;
46230;SDS011;31949;51.404;-0.038;2023-06-22T06:47:44;8.35;;;6.45;;
46230;SDS011;31949;51.404;-0.038;2023-06-22T06:50:12;9.90;;;6.05;;
46230;SDS011;31949;51.404;-0.038;2023-06-22T06:52:40;10.13;;;7.53;;
46230;SDS011;31949;51.404;-0.038;2023-06-22T06:55:08;10.85;;;6.63;;
46230;SDS011;31949;51.404;-0.038;2023-06-22T06:57:39;8.40;;;6.63;;
46230;SDS011;31949;51.404;-0.038;2023-06-22T07:00:08;8.15;;;6.05;;
46230;SDS011;31949;51.404;-0.038;2023-06-22T07:02:39;9.05;;;7.22;;
46230;SDS011;31949;51.404;-0.038;2023-06-22T07:05:08;6.47;;;5.25;;
46230;SDS011;31949;51.404;-0.038;2023-06-22T07:07:36;6.85;;;5.40;;
46230;SDS011;31949;51.404;-0.038;2023-06-22T07:10:07;9.30;;;5.97;;
46230;SDS011;31949;51.404;-0.038;2023-06-22T07:12:34;8.05;;;5.85;;
46230;SDS011;31949;51.404;-0.038;2023-06-22T07:15:05;7.00;;;5.90;;
46230;SDS011;31949;51.404;-0.038;2023-06-22T07:17:35;7.97;;;5.07;;
46230;SDS011;31949;51.404;-0.038;2023-06-22T07:20:03;9.68;;;6.63;;
46230;SDS011;31949;51.404;-0.038;2023-06-22T07:22:39;6.75;;;5.55;;
46230;SDS011;31949;51.404;-0.038;2023-06-22T07:25:07;8.10;;;6.65;;
46230;SDS011;31949;51.404;-0.038;2023-06-22T07:28:00;10.55;;;7.72;;
46230;SDS011;31949;51.404;-0.038;2023-06-22T07:30:30;7.70;;;6.10;;
46230;SDS011;31949;51.404;-0.038;2023-06-22T07:32:59;10.25;;;6.47;;
46230;SDS011;31949;51.404;-0.038;2023-06-22T07:35:30;9.95;;;5.75;;
46230;SDS011;31949;51.404;-0.038;2023-06-22T07:37:58;7.72;;;6.05;;
46230;SDS011;31949;51.404;-0.038;2023-06-22T07:40:30;7.72;;;6.43;;
46230;SDS011;31949;51.404;-0.038;2023-06-22T07:42:58;13.70;;;6.70;;
46230;SDS011;31949;51.404;-0.038;2023-06-22T07:45:25;10.88;;;7.18;;
46230;SDS011;31949;51.404;-0.038;2023-06-22T07:47:53;10.15;;;6.95;;
46230;SDS011;31949;51.404;-0.038;2023-06-22T07:50:20;8.55;;;5.90;;
46230;SDS011;31949;51.404;-0.038;2023-06-22T07:52:48;10.02;;;6.07;;
46230;SDS011;31949;51.404;-0.038;2023-06-22T07:55:15;10.77;;;6.63;;
46230;SDS011;31949;51.404;-0.038;2023-06-22T07:57:42;8.93;;;6.63;;
46230;SDS011;31949;51.404;-0.038;2023-06-22T08:00:10;7.03;;;6.20;;
46230;SDS011;31949;51.404;-0.038;2023-06-22T08:02:42;7.63;;;6.15;;
46230;SDS011;31949;51.404;-0.038;2023-06-22T08:05:12;7.32;;;5.82;;
46230;SDS011;31949;51.404;-0.038;2023-06-22T08:07:47;8.65;;;6.53;;
46230;SDS011;31949;51.404;-0.038;2023-06-22T08:10:16;6.63;;;5.93;;
46230;SDS011;31949;51.404;-0.038;2023-06-22T08:12:44;9.27;;;6.13;;
46230;SDS011;31949;51.404;-0.038;2023-06-22T08:15:11;8.82;;;6.72;;
46230;SDS011;31949;51.404;-0.038;2023-06-22T08:17:38;8.68;;;6.00;;
46230;SDS011;31949;51.404;-0.038;2023-06-22T08:20:06;8.15;;;5.32;;
46230;SDS011;31949;51.404;-0.038;2023-06-22T08:22:43;8.80;;;5.82;;
46230;SDS011;31949;51.404;-0.038;2023-06-22T08:25:11;12.80;;;7.28;;
46230;SDS011;31949;51.404;-0.038;2023-06-22T08:27:40;11.18;;;7.28;;
46230;SDS011;31949;51.404;-0.038;2023-06-22T08:30:07;8.73;;;6.05;;
46230;SDS011;31949;51.404;-0.038;2023-06-22T08:32:37;6.38;;;5.55;;
46230;SDS011;31949;51.404;-0.038;2023-06-22T08:35:05;6.38;;;5.07;;
46230;SDS011;31949;51.404;-0.038;2023-06-22T08:37:34;11.68;;;6.63;;
46230;SDS011;31949;51.404;-0.038;2023-06-22T08:40:03;8.55;;;6.60;;
46230;SDS011;31949;51.404;-0.038;2023-06-22T08:42:35;10.32;;;6.70;;
46230;SDS011;31949;51.404;-0.038;2023-06-22T08:45:03;7.97;;;6.15;;
46230;SDS011;31949;51.404;-0.038;2023-06-22T08:47:31;9.80;;;6.55;;
46230;SDS011;31949;51.404;-0.038;2023-06-22T08:49:58;7.47;;;6.03;;
46230;SDS011;31949;51.404;-0.038;2023-06-22T08:52:26;7.03;;;5.38;;
46230;SDS011;31949;51.404;-0.038;2023-06-22T08:54:53;9.18;;;6.57;;
46230;SDS011;31949;51.404;-0.038;2023-06-22T08:57:21;8.98;;;6.45;;
46230;SDS011;31949;51.404;-0.038;2023-06-22T08:59:48;10.00;;;5.55;;
46230;SDS011;31949;51.404;-0.038;2023-06-22T09:02:15;6.43;;;5.15;;
46230;SDS011;31949;51.404;-0.038;2023-06-22T09:04:43;8.20;;;6.05;;
46230;SDS011;31949;51.404;-0.038;2023-06-22T09:07:10;8.32;;;6.13;;
46230;SDS011;31949;51.404;-0.038;2023-06-22T09:09:38;6.88;;;4.72;;
46230;SDS011;31949;51.404;-0.038;2023-06-22T09:12:05;9.15;;;6.38;;
46230;SDS011;31949;51.404;-0.038;2023-06-22T09:14:33;7.88;;;6.00;;
46230;SDS011;31949;51.404;-0.038;2023-06-22T09:17:00;8.88;;;5.85;;
46230;SDS011;31949;51.404;-0.038;2023-06-22T09:19:27;8.95;;;5.70;;
46230;SDS011;31949;51.404;-0.038;2023-06-22T09:21:55;5.85;;;4.50;;
46230;SDS011;31949;51.404;-0.038;2023-06-22T09:24:22;7.75;;;5.45;;
46230;SDS011;31949;51.404;-0.038;2023-06-22T09:26:49;7.57;;;5.40;;
46230;SDS011;31949;51.404;-0.038;2023-06-22T09:29:17;5.63;;;5.03;;
46230;SDS011;31949;51.404;-0.038;2023-06-22T09:31:44;4.13;;;3.83;;
46230;SDS011;31949;51.404;-0.038;2023-06-22T09:34:11;4.88;;;4.40;;
46230;SDS011;31949;51.404;-0.038;2023-06-22T09:36:38;6.95;;;5.03;;
46230;SDS011;31949;51.404;-0.038;2023-06-22T09:39:08;5.95;;;5.30;;
46230;SDS011;31949;51.404;-0.038;2023-06-22T09:41:35;8.32;;;5.70;;
46230;SDS011;31949;51.404;-0.038;2023-06-22T09:44:02;6.28;;;5.68;;
46230;SDS011;31949;51.404;-0.038;2023-06-22T09:46:29;4.75;;;4.32;;
46230;SDS011;31949;51.404;-0.038;2023-06-22T09:48:57;6.07;;;5.00;;
46230;SDS011;31949;51.404;-0.038;2023-06-22T09:51:24;6.65;;;4.95;;
46230;SDS011;31949;51.404;-0.038;2023-06-22T09:53:51;5.90;;;4.68;;
46230;SDS011;31949;51.404;-0.038;2023-06-22T09:56:20;7.28;;;4.82;;
46230;SDS011;31949;51.404;-0.038;2023-06-22T09:58:48;5.47;;;4.28;;
46230;SDS011;31949;51.404;-0.038;2023-06-22T10:01:18;5.03;;;4.50;;
46230;SDS011;31949;51.404;-0.038;2023-06-22T10:03:47;7.35;;;4.63;;
46230;SDS011;31949;51.404;-0.038;2023-06-22T10:06:14;7.90;;;5.53;;
46230;SDS011;31949;51.404;-0.038;2023-06-22T10:08:42;10.25;;;5.15;;
46230;SDS011;31949;51.404;-0.038;2023-06-22T10:11:10;5.25;;;4.75;;
46230;SDS011;31949;51.404;-0.038;2023-06-22T10:13:37;4.90;;;4.10;;
46230;SDS011;31949;51.404;-0.038;2023-06-22T10:16:04;5.03;;;4.00;;
46230;SDS011;31949;51.404;-0.038;2023-06-22T10:18:31;5.60;;;3.75;;
46230;SDS011;31949;51.404;-0.038;2023-06-22T10:20:59;5.25;;;4.75;;
46230;SDS011;31949;51.404;-0.038;2023-06-22T10:23:26;6.03;;;4.50;;
46230;SDS011;31949;51.404;-0.038;2023-06-22T10:25:54;5.90;;;4.53;;
46230;SDS011;31949;51.404;-0.038;2023-06-22T10:28:24;6.88;;;5.05;;
46230;SDS011;31949;51.404;-0.038;2023-06-22T10:30:51;7.50;;;5.20;;
46230;SDS011;31949;51.404;-0.038;2023-06-22T10:33:19;9.63;;;5.60;;
46230;SDS011;31949;51.404;-0.038;2023-06-22T10:35:47;6.95;;;5.80;;
46230;SDS011;31949;51.404;-0.038;2023-06-22T10:38:14;7.90;;;4.85;;
46230;SDS011;31949;51.404;-0.038;2023-06-22T10:40:41;6.13;;;4.50;;
46230;SDS011;31949;51.404;-0.038;2023-06-22T10:43:08;7.05;;;4.72;;
46230;SDS011;31949;51.404;-0.038;2023-06-22T10:45:35;9.00;;;4.38;;
46230;SDS011;31949;51.404;-0.038;2023-06-22T10:48:03;4.60;;;3.92;;
46230;SDS011;31949;51.404;-0.038;2023-06-22T10:50:30;3.85;;;3.45;;
46230;SDS011;31949;51.404;-0.038;2023-06-22T10:52:57;4.60;;;3.40;;
46230;SDS011;31949;51.404;-0.038;2023-06-22T10:55:26;5.70;;;3.75;;
46230;SDS011;31949;51.404;-0.038;2023-06-22T10:58:05;4.10;;;3.13;;
46230;SDS011;31949;51.404;-0.038;2023-06-22T11:00:34;6.40;;;3.97;;
46230;SDS011;31949;51.404;-0.038;2023-06-22T11:03:01;3.58;;;3.10;;
46230;SDS011;31949;51.404;-0.038;2023-06-22T11:05:29;7.00;;;3.95;;
46230;SDS011;31949;51.404;-0.038;2023-06-22T11:07:56;4.85;;;3.75;;
46230;SDS011;31949;51.404;-0.038;2023-06-22T11:10:24;7.18;;;4.25;;
46230;SDS011;31949;51.404;-0.038;2023-06-22T11:12:51;7.78;;;3.97;;
46230;SDS011;31949;51.404;-0.038;2023-06-22T11:15:19;4.20;;;3.15;;
46230;SDS011;31949;51.404;-0.038;2023-06-22T11:17:46;6.00;;;4.00;;
46230;SDS011;31949;51.404;-0.038;2023-06-22T11:20:14;4.28;;;3.55;;
46230;SDS011;31949;51.404;-0.038;2023-06-22T11:22:41;6.78;;;3.88;;
46230;SDS011;31949;51.404;-0.038;2023-06-22T11:25:09;4.68;;;4.10;;
46230;SDS011;31949;51.404;-0.038;2023-06-22T11:27:38;3.60;;;3.30;;
46230;SDS011;31949;51.404;-0.038;2023-06-22T11:30:06;4.30;;;3.63;;
46230;SDS011;31949;51.404;-0.038;2023-06-22T11:32:34;3.65;;;3.00;;
46230;SDS011;31949;51.404;-0.038;2023-06-22T11:35:02;10.32;;;3.90;;
46230;SDS011;31949;51.404;-0.038;2023-06-22T11:37:29;4.57;;;3.70;;
46230;SDS011;31949;51.404;-0.038;2023-06-22T11:39:56;5.93;;;3.67;;
46230;SDS011;31949;51.404;-0.038;2023-06-22T11:42:33;3.40;;;3.10;;
46230;SDS011;31949;51.404;-0.038;2023-06-22T11:45:01;4.03;;;3.50;;
46230;SDS011;31949;51.404;-0.038;2023-06-22T11:47:29;4.70;;;3.63;;
46230;SDS011;31949;51.404;-0.038;2023-06-22T11:49:56;4.97;;;3.78;;
46230;SDS011;31949;51.404;-0.038;2023-06-22T11:52:23;4.18;;;3.58;;
46230;SDS011;31949;51.404;-0.038;2023-06-22T11:54:51;3.30;;;3.00;;
46230;SDS011;31949;51.404;-0.038;2023-06-22T11:57:18;5.13;;;3.40;;
46230;SDS011;31949;51.404;-0.038;2023-06-22T11:59:45;6.13;;;3.60;;
46230;SDS011;31949;51.404;-0.038;2023-06-22T12:02:12;13.20;;;4.15;;
46230;SDS011;31949;51.404;-0.038;2023-06-22T12:04:41;5.60;;;3.08;;
46230;SDS011;31949;51.404;-0.038;2023-06-22T12:07:08;6.18;;;3.33;;
46230;SDS011;31949;51.404;-0.038;2023-06-22T12:09:35;8.95;;;3.30;;
46230;SDS011;31949;51.404;-0.038;2023-06-22T12:12:02;5.38;;;3.30;;
46230;SDS011;31949;51.404;-0.038;2023-06-22T12:14:33;3.53;;;3.20;;
46230;SDS011;31949;51.404;-0.038;2023-06-22T12:17:00;6.05;;;3.60;;
46230;SDS011;31949;51.404;-0.038;2023-06-22T12:19:28;3.55;;;3.13;;
46230;SDS011;31949;51.404;-0.038;2023-06-22T12:21:55;6.95;;;3.53;;
46230;SDS011;31949;51.404;-0.038;2023-06-22T12:24:22;4.65;;;3.42;;
46230;SDS011;31949;51.404;-0.038;2023-06-22T12:26:49;3.92;;;3.22;;
46230;SDS011;31949;51.404;-0.038;2023-06-22T12:29:18;4.25;;;3.75;;
46230;SDS011;31949;51.404;-0.038;2023-06-22T12:31:46;5.78;;;3.33;;
46230;SDS011;31949;51.404;-0.038;2023-06-22T12:34:13;5.53;;;2.72;;
46230;SDS011;31949;51.404;-0.038;2023-06-22T12:36:40;6.45;;;3.70;;
46230;SDS011;31949;51.404;-0.038;2023-06-22T12:39:08;4.45;;;3.03;;
46230;SDS011;31949;51.404;-0.038;2023-06-22T12:41:35;3.65;;;3.00;;
46230;SDS011;31949;51.404;-0.038;2023-06-22T12:44:02;4.40;;;4.00;;
46230;SDS011;31949;51.404;-0.038;2023-06-22T12:46:29;3.25;;;2.95;;
46230;SDS011;31949;51.404;-0.038;2023-06-22T12:49:04;4.43;;;2.97;;
46230;SDS011;31949;51.404;-0.038;2023-06-22T12:51:32;4.00;;;3.40;;
46230;SDS011;31949;51.404;-0.038;2023-06-22T12:53:59;5.82;;;3.33;;
46230;SDS011;31949;51.404;-0.038;2023-06-22T12:56:26;2.78;;;2.50;;
46230;SDS011;31949;51.404;-0.038;2023-06-22T12:58:53;3.42;;;3.13;;
46230;SDS011;31949;51.404;-0.038;2023-06-22T13:01:21;5.00;;;3.00;;
46230;SDS011;31949;51.404;-0.038;2023-06-22T13:03:49;5.28;;;3.25;;
46230;SDS011;31949;51.404;-0.038;2023-06-22T13:06:16;4.10;;;2.70;;
46230;SDS011;31949;51.404;-0.038;2023-06-22T13:08:43;2.90;;;2.42;;
46230;SDS011;31949;51.404;-0.038;2023-06-22T13:11:30;3.33;;;2.97;;
46230;SDS011;31949;51.404;-0.038;2023-06-22T13:13:58;5.45;;;2.78;;
46230;SDS011;31949;51.404;-0.038;2023-06-22T13:16:25;3.28;;;2.67;;
46230;SDS011;31949;51.404;-0.038;2023-06-22T13:18:52;3.75;;;3.20;;
46230;SDS011;31949;51.404;-0.038;2023-06-22T13:21:19;6.43;;;3.17;;
46230;SDS011;31949;51.404;-0.038;2023-06-22T13:23:46;4.75;;;3.05;;
46230;SDS011;31949;51.404;-0.038;2023-06-22T13:26:13;2.75;;;2.55;;
46230;SDS011;31949;51.404;-0.038;2023-06-22T13:28:40;3.63;;;2.60;;
46230;SDS011;31949;51.404;-0.038;2023-06-22T13:31:08;5.88;;;3.15;;
46230;SDS011;31949;51.404;-0.038;2023-06-22T13:33:35;8.30;;;3.03;;
46230;SDS011;31949;51.404;-0.038;2023-06-22T13:36:04;4.72;;;3.03;;
46230;SDS011;31949;51.404;-0.038;2023-06-22T13:38:33;2.90;;;2.35;;
46230;SDS011;31949;51.404;-0.038;2023-06-22T13:41:05;3.42;;;2.78;;
46230;SDS011;31949;51.404;-0.038;2023-06-22T13:43:32;2.55;;;2.35;;
46230;SDS011;31949;51.404;-0.038;2023-06-22T13:45:59;3.15;;;2.58;;
46230;SDS011;31949;51.404;-0.038;2023-06-22T13:48:27;2.45;;;2.25;;
46230;SDS011;31949;51.404;-0.038;2023-06-22T13:50:55;5.03;;;2.72;;
46230;SDS011;31949;51.404;-0.038;2023-06-22T13:53:24;4.25;;;3.30;;
46230;SDS011;31949;51.404;-0.038;2023-06-22T13:55:52;4.93;;;2.60;;
46230;SDS011;31949;51.404;-0.038;2023-06-22T13:58:19;3.35;;;2.25;;
46230;SDS011;31949;51.404;-0.038;2023-06-22T14:00:46;2.45;;;2.25;;
46230;SDS011;31949;51.404;-0.038;2023-06-22T14:03:14;2.90;;;2.55;;
46230;SDS011;31949;51.404;-0.038;2023-06-22T14:05:44;5.45;;;2.22;;
46230;SDS011;31949;51.404;-0.038;2023-06-22T14:08:12;2.67;;;2.47;;
46230;SDS011;31949;51.404;-0.038;2023-06-22T14:10:59;4.47;;;2.65;;
46230;SDS011;31949;51.404;-0.038;2023-06-22T14:13:26;3.00;;;2.20;;
46230;SDS011;31949;51.404;-0.038;2023-06-22T14:15:54;2.28;;;2.08;;
46230;SDS011;31949;51.404;-0.038;2023-06-22T14:18:21;3.30;;;2.30;;
46230;SDS011;31949;51.404;-0.038;2023-06-22T14:20:51;2.42;;;2.17;;
46230;SDS011;31949;51.404;-0.038;2023-06-22T14:23:18;2.63;;;2.15;;
46230;SDS011;31949;51.404;-0.038;2023-06-22T14:25:45;2.63;;;2.42;;
46230;SDS011;31949;51.404;-0.038;2023-06-22T14:28:13;3.85;;;3.00;;
46230;SDS011;31949;51.404;-0.038;2023-06-22T14:30:40;3.30;;;2.58;;
46230;SDS011;31949;51.404;-0.038;2023-06-22T14:33:07;4.22;;;2.85;;
46230;SDS011;31949;51.404;-0.038;2023-06-22T14:35:35;4.10;;;2.65;;
46230;SDS011;31949;51.404;-0.038;2023-06-22T14:38:02;4.70;;;2.53;;
46230;SDS011;31949;51.404;-0.038;2023-06-22T14:40:29;3.88;;;2.35;;
46230;SDS011;31949;51.404;-0.038;2023-06-22T14:43:09;2.80;;;2.60;;
46230;SDS011;31949;51.404;-0.038;2023-06-22T14:45:36;3.58;;;2.60;;
46230;SDS011;31949;51.404;-0.038;2023-06-22T14:48:03;3.05;;;2.28;;
46230;SDS011;31949;51.404;-0.038;2023-06-22T14:50:31;3.47;;;2.85;;